createdAt,value
2022-11-16T00:01:15.390Z,99031.50
2022-11-16T00:03:53.813Z,99032.94
2022-11-16T00:06:24.206Z,99026.75
2022-11-16T00:09:24.043Z,99022.34
2022-11-16T00:12:01.204Z,99022.59
2022-11-16T00:14:32.967Z,99012.28
2022-11-16T00:17:07.265Z,99013.91
2022-11-16T00:19:37.685Z,99013.34
2022-11-16T00:22:08.729Z,99009.69
2022-11-16T00:24:37.111Z,99012.19
2022-11-16T00:27:06.222Z,99005.63
2022-11-16T00:29:38.426Z,99006.34
2022-11-16T00:32:06.240Z,98998.44
2022-11-16T00:34:38.633Z,99005.16
2022-11-16T00:37:06.270Z,98996.84
2022-11-16T00:39:40.447Z,98988.41
2022-11-16T00:42:09.297Z,98994.31
2022-11-16T00:44:40.461Z,98986.78
2022-11-16T00:47:08.693Z,98983.09
2022-11-16T00:49:40.575Z,98980.88
2022-11-16T00:52:08.319Z,98973.41
2022-11-16T00:54:46.651Z,98982.28
2022-11-16T00:57:16.568Z,98979.94
2022-11-16T00:59:52.596Z,98973.63
2022-11-16T01:02:35.240Z,98976.72
2022-11-16T01:05:05.392Z,98989.13
2022-11-16T01:07:43.588Z,98981.38
2022-11-16T01:10:16.146Z,98975.38
2022-11-16T01:12:50.154Z,98978.22
2022-11-16T01:15:22.616Z,98976.19
2022-11-16T01:17:57.664Z,98972.16
2022-11-16T01:20:40.583Z,98977.22
2022-11-16T01:23:12.734Z,98971.69
2022-11-16T01:25:51.576Z,98974.56
2022-11-16T01:28:23.630Z,98968.00
2022-11-16T01:31:00.705Z,98974.56
2022-11-16T01:33:30.637Z,98970.03
2022-11-16T01:35:59.161Z,98978.50
2022-11-16T01:38:29.799Z,98971.22
2022-11-16T01:41:00.415Z,98973.41
2022-11-16T01:44:04.682Z,98969.78
2022-11-16T01:46:40.843Z,98969.50
2022-11-16T01:49:24.788Z,98980.47
2022-11-16T01:51:58.857Z,98982.63
2022-11-16T01:54:28.629Z,98971.78
2022-11-16T01:57:10.712Z,98974.00
2022-11-16T01:59:44.881Z,98973.41
2022-11-16T02:02:19.059Z,98979.41
2022-11-16T02:08:19.693Z,98984.34
2022-11-16T02:11:05.770Z,98984.19
2022-11-16T02:14:21.600Z,98986.25
2022-11-16T02:17:14.843Z,98987.31
2022-11-16T02:20:15.679Z,98987.53
2022-11-16T02:23:32.698Z,98982.72
2022-11-16T02:26:55.953Z,99002.88
2022-11-16T02:29:43.615Z,99012.94
2022-11-16T02:32:35.649Z,98999.00
2022-11-16T02:35:22.380Z,98993.19
2022-11-16T02:38:08.328Z,98978.66
2022-11-16T02:40:46.820Z,98961.03
2022-11-16T02:43:29.048Z,98953.31
2022-11-16T02:46:06.972Z,98959.44
2022-11-16T02:48:49.072Z,98953.13
2022-11-16T02:51:23.167Z,98946.03
2022-11-16T02:54:15.465Z,98942.06
2022-11-16T02:57:05.202Z,98934.72
2022-11-16T02:59:46.826Z,98940.00
2022-11-16T03:03:12.697Z,98949.88
2022-11-16T03:59:27.484Z,98975.25
2022-11-16T04:01:59.299Z,98979.47
2022-11-16T04:04:54.610Z,98987.53
2022-11-16T04:07:41.203Z,98970.47
2022-11-16T04:10:33.438Z,98978.72
2022-11-16T04:13:25.230Z,98984.09
2022-11-16T04:16:12.845Z,98992.66
2022-11-16T04:19:00.066Z,98993.34
2022-11-16T04:22:01.587Z,98982.50
2022-11-16T04:24:38.810Z,98984.03
2022-11-16T04:27:29.782Z,98993.97
2022-11-16T04:30:00.862Z,98997.84
2022-11-16T04:32:52.843Z,98992.47
2022-11-16T04:35:48.145Z,98997.22
2022-11-16T04:38:22.381Z,98998.66
2022-11-16T04:40:52.501Z,98982.41
2022-11-16T04:43:36.550Z,98997.56
2022-11-16T04:46:23.297Z,98998.56
2022-11-16T04:49:06.461Z,98991.38
2022-11-16T04:51:42.850Z,98997.50
2022-11-16T04:54:18.603Z,98998.66
2022-11-16T04:56:52.614Z,99006.28
2022-11-16T04:59:23.733Z,99005.81
2022-11-16T05:02:15.584Z,98999.75
2022-11-16T05:04:48.571Z,99004.50
2022-11-16T05:07:22.332Z,99001.78
2022-11-16T05:09:53.622Z,98997.84
2022-11-16T05:12:31.424Z,98999.00
2022-11-16T05:14:59.841Z,98993.72
2022-11-16T05:17:38.008Z,99001.16
2022-11-16T05:20:29.066Z,99000.97
2022-11-16T05:23:01.806Z,98999.19
2022-11-16T05:25:36.803Z,99001.97
2022-11-16T05:28:13.409Z,98992.28
2022-11-16T05:30:43.095Z,98991.94
2022-11-16T05:33:19.829Z,98990.31
2022-11-16T05:35:54.357Z,98987.78
2022-11-16T05:38:31.942Z,98987.97
2022-11-16T05:41:01.401Z,99002.88
2022-11-16T05:43:34.921Z,99001.09
2022-11-16T05:46:13.068Z,98996.22
2022-11-16T05:48:42.322Z,99005.94
2022-11-16T05:51:15.822Z,99001.34
2022-11-16T05:53:51.191Z,99004.03
2022-11-16T05:56:22.949Z,99008.34
2022-11-16T05:58:58.769Z,99006.91
2022-11-16T06:01:28.277Z,99018.94
2022-11-16T06:04:00.967Z,99022.72
2022-11-16T06:06:30.032Z,99027.38
2022-11-16T06:08:58.879Z,99036.72
2022-11-16T06:11:44.841Z,99035.81
2022-11-16T06:14:15.100Z,99032.50
2022-11-16T06:16:48.905Z,99043.50
2022-11-16T06:19:27.029Z,99039.13
2022-11-16T06:22:05.007Z,99035.53
2022-11-16T06:24:36.415Z,99036.22
2022-11-16T06:27:14.713Z,99038.56
2022-11-16T06:29:50.952Z,99038.59
2022-11-16T06:32:28.162Z,99041.31
2022-11-16T06:34:56.564Z,99049.81
2022-11-16T06:37:35.114Z,99050.38
2022-11-16T06:40:20.902Z,99047.19
2022-11-16T06:42:49.961Z,99037.69
2022-11-16T06:45:18.509Z,99045.03
2022-11-16T06:47:48.833Z,99044.59
2022-11-16T06:50:20.021Z,99046.53
2022-11-16T06:52:50.543Z,99050.31
2022-11-16T06:55:18.478Z,99048.81
2022-11-16T06:57:50.065Z,99055.41
2022-11-16T07:00:19.349Z,99059.72
2022-11-16T07:02:47.881Z,99068.41
2022-11-16T07:05:19.913Z,99067.16
2022-11-16T07:07:49.007Z,99077.59
2022-11-16T07:10:18.693Z,99075.25
2022-11-16T07:12:50.131Z,99085.16
2022-11-16T07:15:18.729Z,99085.59
2022-11-16T07:17:52.968Z,99089.53
2022-11-16T07:20:25.033Z,99094.25
2022-11-16T07:22:56.586Z,99094.69
2022-11-16T07:25:25.667Z,99095.78
2022-11-16T07:27:56.447Z,99096.84
2022-11-16T07:30:24.669Z,99093.34
2022-11-16T07:34:07.826Z,99100.03
2022-11-16T07:37:54.879Z,99086.03
2022-11-16T07:41:23.939Z,99098.66
2022-11-16T07:43:53.634Z,99118.25
2022-11-16T07:49:20.708Z,99120.03
2022-11-16T07:51:51.625Z,99122.00
2022-11-16T07:54:28.527Z,99114.25
2022-11-16T07:56:56.852Z,99111.16
2022-11-16T07:59:28.254Z,99103.63
2022-11-16T08:02:02.876Z,99108.47
2022-11-16T08:04:34.039Z,99117.16
2022-11-16T08:07:08.186Z,99118.78
2022-11-16T08:09:38.572Z,99116.19
2022-11-16T08:12:12.975Z,99117.78
2022-11-16T08:14:40.908Z,99124.53
2022-11-16T08:17:15.591Z,99116.44
2022-11-16T08:19:44.280Z,99121.78
2022-11-16T08:22:17.652Z,99119.41
2022-11-16T08:24:49.001Z,99124.38
2022-11-16T08:27:18.253Z,99127.31
2022-11-16T08:29:59.246Z,99124.53
2022-11-16T08:32:29.983Z,99120.25
2022-11-16T08:35:01.228Z,99119.09
2022-11-16T08:37:29.845Z,99121.81
2022-11-16T08:40:03.955Z,99120.03
2022-11-16T08:42:39.397Z,99112.06
2022-11-16T08:45:15.578Z,99107.22
2022-11-16T08:47:47.725Z,99110.22
2022-11-16T08:50:19.178Z,99108.28
2022-11-16T08:52:59.925Z,99113.63
2022-11-16T08:55:29.862Z,99111.53
2022-11-16T08:57:58.467Z,99126.28
2022-11-16T09:00:27.404Z,99135.72
2022-11-16T09:02:56.350Z,99135.47
2022-11-16T09:05:24.460Z,99132.13
2022-11-16T09:07:56.794Z,99136.16
2022-11-16T09:10:35.172Z,99137.88
2022-11-16T09:13:06.658Z,99137.34
2022-11-16T09:15:39.214Z,99143.19
2022-11-16T09:18:17.036Z,99135.47
2022-11-16T09:20:50.874Z,99134.78
2022-11-16T09:23:24.921Z,99130.38
2022-11-16T09:25:57.411Z,99145.69
2022-11-16T09:28:25.683Z,99138.38
2022-11-16T09:30:58.369Z,99136.69
2022-11-16T09:33:29.528Z,99142.16
2022-11-16T09:36:04.834Z,99136.88
2022-11-16T09:39:10.156Z,99136.13
2022-11-16T09:42:25.799Z,99140.94
2022-11-16T09:45:13.356Z,99139.81
2022-11-16T09:47:50.860Z,99138.50
2022-11-16T09:51:08.969Z,99141.47
2022-11-16T09:54:06.632Z,99145.91
2022-11-16T09:56:42.262Z,99150.31
2022-11-16T09:59:18.122Z,99146.31
2022-11-16T10:02:28.810Z,99149.22
2022-11-16T10:05:29.302Z,99140.25
2022-11-16T10:08:11.628Z,99140.28
2022-11-16T10:11:35.076Z,99136.56
2022-11-16T10:14:46.604Z,99133.13
2022-11-16T10:17:34.008Z,99130.53
2022-11-16T10:20:29.205Z,99115.53
2022-11-16T10:23:42.159Z,99117.28
2022-11-16T10:26:42.402Z,99117.50
2022-11-16T10:29:54.591Z,99119.00
2022-11-16T10:32:41.845Z,99109.34
2022-11-16T10:35:14.320Z,99083.81
2022-11-16T10:37:55.892Z,99084.88
2022-11-16T10:40:44.837Z,99087.63
2022-11-16T10:43:17.194Z,99096.41
2022-11-16T10:46:30.540Z,99092.72
2022-11-16T10:49:09.753Z,99080.69
2022-11-16T10:51:40.488Z,99082.34
2022-11-16T10:54:23.817Z,99077.19
2022-11-16T10:57:17.083Z,99066.28
2022-11-16T10:59:56.026Z,99057.75
2022-11-16T11:02:37.694Z,99056.59
2022-11-16T11:05:18.426Z,99060.81
2022-11-16T11:08:29.034Z,99058.81
2022-11-16T11:11:39.502Z,99041.06
2022-11-16T11:14:16.090Z,99045.06
2022-11-16T11:16:54.689Z,99038.72
2022-11-16T11:19:29.268Z,99046.38
2022-11-16T11:22:04.781Z,99036.31
2022-11-16T11:24:44.283Z,99027.03
2022-11-16T11:27:22.835Z,99017.19
2022-11-16T11:29:59.552Z,99019.59
2022-11-16T11:32:39.745Z,99036.91
2022-11-16T11:35:23.487Z,99026.84
2022-11-16T11:37:56.292Z,99028.47
2022-11-16T11:40:31.840Z,99010.38
2022-11-16T11:43:13.737Z,99023.03
2022-11-16T11:46:08.838Z,99015.97
2022-11-16T11:49:05.681Z,99013.19
2022-11-16T11:51:48.680Z,99009.53
2022-11-16T11:54:45.691Z,99011.97
2022-11-16T11:57:20.872Z,99014.34
2022-11-16T11:59:55.620Z,99009.31
2022-11-16T12:02:49.513Z,99012.31
2022-11-16T12:06:04.652Z,98999.22
2022-11-16T12:09:24.899Z,98997.28
2022-11-16T12:12:29.063Z,99010.72
2022-11-16T12:15:08.711Z,99007.03
2022-11-16T12:18:29.534Z,98992.75
2022-11-16T12:21:19.048Z,98990.38
2022-11-16T12:24:04.672Z,98991.03
2022-11-16T12:26:54.984Z,98989.84
2022-11-16T12:29:43.984Z,98982.78
2022-11-16T12:33:23.690Z,98983.34
2022-11-16T12:36:24.067Z,98973.09
2022-11-16T12:39:04.774Z,98953.56
2022-11-16T12:41:57.427Z,98962.84
2022-11-16T12:45:02.817Z,98961.66
2022-11-16T12:47:44.445Z,98963.25
2022-11-16T12:51:13.134Z,98965.03
2022-11-16T12:54:29.126Z,98960.41
2022-11-16T12:57:17.700Z,98952.72
2022-11-16T13:00:21.073Z,98944.09
2022-11-16T13:03:28.103Z,98942.47
2022-11-16T13:06:09.868Z,98926.94
2022-11-16T13:09:08.830Z,98925.38
2022-11-16T13:11:43.698Z,98924.56
2022-11-16T13:14:25.780Z,98934.63
2022-11-16T13:17:03.704Z,98943.91
2022-11-16T13:19:35.268Z,98943.03
2022-11-16T13:22:29.087Z,98938.66
2022-11-16T13:25:08.003Z,98939.84
2022-11-16T13:27:54.467Z,98930.13
2022-11-16T13:31:01.673Z,98931.25
2022-11-16T13:33:51.348Z,98931.84
2022-11-16T13:36:45.874Z,98927.63
2022-11-16T13:39:54.667Z,98923.38
2022-11-16T13:42:25.686Z,98930.63
2022-11-16T13:45:09.586Z,98935.06
2022-11-16T13:47:39.908Z,98934.25
2022-11-16T13:50:25.898Z,98931.00
2022-11-16T13:56:08.689Z,98931.63
2022-11-16T13:58:45.764Z,98937.84
2022-11-16T14:01:22.807Z,98924.97
2022-11-16T14:04:42.040Z,98935.63
2022-11-16T14:07:45.721Z,98929.81
2022-11-16T14:10:58.338Z,98931.63
2022-11-16T14:13:51.197Z,98926.59
2022-11-16T14:16:22.871Z,98923.16
2022-11-16T14:19:00.160Z,98919.13
2022-11-16T14:21:54.086Z,98920.00
2022-11-16T14:25:08.676Z,98912.91
2022-11-16T14:27:50.324Z,98905.59
2022-11-16T14:30:31.850Z,98907.84
2022-11-16T14:33:00.498Z,98912.47
2022-11-16T14:35:41.947Z,98916.69
2022-11-16T14:38:45.284Z,98910.03
2022-11-16T14:41:25.791Z,98906.84
2022-11-16T14:56:59.662Z,98877.09
2022-11-16T14:59:28.504Z,98887.34
2022-11-16T15:01:55.832Z,98906.47
2022-11-16T15:04:25.457Z,98908.06
2022-11-16T15:06:57.987Z,98907.25
2022-11-16T15:09:30.214Z,98897.81
2022-11-16T15:12:20.118Z,98876.66
2022-11-16T15:14:54.323Z,98885.53
2022-11-16T15:17:30.111Z,98884.50
2022-11-16T15:20:15.878Z,98879.66
2022-11-16T15:22:47.311Z,98885.47
2022-11-16T15:25:42.884Z,98890.72
2022-11-16T15:28:24.196Z,98904.56
2022-11-16T15:30:58.610Z,98895.94
2022-11-16T15:33:30.174Z,98878.22
2022-11-16T15:35:57.694Z,98872.66
2022-11-16T15:38:40.577Z,98852.91
2022-11-16T15:41:10.351Z,98852.06
2022-11-16T15:44:01.322Z,98856.84
2022-11-16T15:46:34.481Z,98852.44
2022-11-16T15:49:02.465Z,98854.56
2022-11-16T15:51:31.558Z,98865.41
2022-11-16T15:54:28.854Z,98864.88
2022-11-16T15:57:08.338Z,98850.81
2022-11-16T15:59:37.572Z,98852.44
2022-11-16T16:02:05.207Z,98841.16
2022-11-16T16:04:37.553Z,98850.78
2022-11-16T16:07:05.076Z,98854.34
2022-11-16T16:09:41.265Z,98858.38
2022-11-16T16:12:26.347Z,98854.75
2022-11-16T16:15:20.890Z,98846.28
2022-11-16T16:17:48.026Z,98849.63
2022-11-16T16:20:26.519Z,98847.16
2022-11-16T16:22:54.325Z,98834.75
2022-11-16T16:25:34.346Z,98835.72
2022-11-16T16:28:01.842Z,98835.59
2022-11-16T16:30:30.442Z,98847.97
2022-11-16T16:32:58.778Z,98847.75
2022-11-16T16:35:27.807Z,98844.47
2022-11-16T16:38:01.115Z,98848.22
2022-11-16T16:40:29.774Z,98844.53
2022-11-16T16:42:57.831Z,98845.34
2022-11-16T16:45:38.929Z,98837.94
2022-11-16T16:48:06.793Z,98837.56
2022-11-16T16:50:33.730Z,98833.22
2022-11-16T16:53:00.769Z,98830.75
2022-11-16T16:55:28.386Z,98823.41
2022-11-16T16:57:58.203Z,98820.06
2022-11-16T17:00:25.947Z,98813.78
2022-11-16T17:02:52.831Z,98814.88
2022-11-16T17:05:19.805Z,98814.75
2022-11-16T17:07:46.749Z,98803.66
2022-11-16T17:10:13.702Z,98807.59
2022-11-16T17:12:41.676Z,98805.38
2022-11-16T17:15:11.932Z,98808.97
2022-11-16T17:17:42.960Z,98810.00
2022-11-16T17:20:11.529Z,98804.19
2022-11-16T17:22:38.613Z,98809.59
2022-11-16T17:25:05.929Z,98799.78
2022-11-16T17:27:32.998Z,98787.53
2022-11-16T17:30:00.253Z,98789.25
2022-11-16T17:32:30.551Z,98773.53
2022-11-16T17:34:58.502Z,98775.59
2022-11-16T17:37:25.494Z,98770.22
2022-11-16T17:39:52.358Z,98757.94
2022-11-16T17:42:19.292Z,98754.75
2022-11-16T17:44:46.147Z,98762.34
2022-11-16T17:47:14.537Z,98759.53
2022-11-16T17:49:41.483Z,98757.53
2022-11-16T17:52:08.452Z,98739.41
2022-11-16T17:54:35.405Z,98746.91
2022-11-16T17:57:05.542Z,98743.47
2022-11-16T17:59:33.282Z,98733.25
2022-11-16T18:02:00.341Z,98724.00
2022-11-16T18:04:27.274Z,98712.53
2022-11-16T18:06:54.301Z,98721.72
2022-11-16T18:09:21.226Z,98727.16
2022-11-16T18:11:48.121Z,98725.31
2022-11-16T18:14:15.081Z,98721.66
2022-11-16T18:16:43.449Z,98716.03
2022-11-16T18:19:17.059Z,98719.41
2022-11-16T18:21:46.111Z,98717.63
2022-11-16T18:24:13.774Z,98718.84
2022-11-16T18:26:41.316Z,98718.66
2022-11-16T18:29:12.223Z,98713.69
2022-11-16T18:31:39.873Z,98711.28
2022-11-16T18:34:06.801Z,98709.63
2022-11-16T18:36:33.806Z,98702.22
2022-11-16T18:39:00.807Z,98697.00
2022-11-16T18:41:29.841Z,98704.78
2022-11-16T18:44:01.760Z,98706.78
2022-11-16T18:46:32.606Z,98710.31
2022-11-16T18:49:00.254Z,98710.84
2022-11-16T18:51:28.735Z,98707.56
2022-11-16T18:53:56.378Z,98716.78
2022-11-16T18:56:24.075Z,98719.31
2022-11-16T18:58:52.928Z,98712.03
2022-11-16T19:01:24.886Z,98718.84
2022-11-16T19:03:53.738Z,98709.63
2022-11-16T19:06:22.239Z,98709.16
2022-11-16T19:08:56.471Z,98716.19
2022-11-16T19:11:24.501Z,98715.19
2022-11-16T19:14:00.500Z,98712.97
2022-11-16T19:16:28.735Z,98721.13
2022-11-16T19:18:55.822Z,98720.47
2022-11-16T19:21:23.487Z,98720.88
2022-11-16T19:23:54.113Z,98719.88
2022-11-16T19:26:25.521Z,98730.03
2022-11-16T19:28:53.874Z,98725.91
2022-11-16T19:31:31.536Z,98740.50
2022-11-16T19:34:03.005Z,98725.47
2022-11-16T19:36:31.553Z,98720.13
2022-11-16T19:38:59.105Z,98720.31
2022-11-16T19:41:27.277Z,98721.03
2022-11-16T19:43:58.998Z,98721.09
2022-11-16T19:46:28.960Z,98721.50
2022-11-16T19:48:56.479Z,98719.03
2022-11-16T19:51:29.639Z,98711.56
2022-11-16T19:53:58.525Z,98701.66
2022-11-16T19:56:25.686Z,98702.47
2022-11-16T19:58:53.325Z,98704.69
2022-11-16T20:01:27.807Z,98717.56
2022-11-16T20:03:58.250Z,98705.16
2022-11-16T20:06:29.218Z,98703.13
2022-11-16T20:09:00.599Z,98703.44
2022-11-16T20:11:30.568Z,98707.63
2022-11-16T20:13:58.650Z,98711.84
2022-11-16T20:16:34.084Z,98701.09
2022-11-16T20:19:05.158Z,98705.31
2022-11-16T20:21:36.352Z,98695.13
2022-11-16T20:24:07.072Z,98700.28
2022-11-16T20:26:36.945Z,98697.50
2022-11-16T20:29:03.972Z,98688.53
2022-11-16T20:31:33.526Z,98688.63
2022-11-16T20:34:04.445Z,98687.16
2022-11-16T20:36:33.381Z,98680.34
2022-11-16T20:39:01.104Z,98677.03
2022-11-16T20:41:33.162Z,98672.72
2022-11-16T20:44:02.218Z,98673.41
2022-11-16T20:46:32.490Z,98661.06
2022-11-16T20:49:01.800Z,98658.28
2022-11-16T20:51:29.853Z,98651.22
2022-11-16T20:53:57.763Z,98648.44
2022-11-16T20:56:24.774Z,98648.06
2022-11-16T20:58:51.779Z,98649.38
2022-11-16T21:01:29.682Z,98657.56
2022-11-16T21:04:01.813Z,98655.66
2022-11-16T21:06:29.528Z,98646.13
2022-11-16T21:08:57.112Z,98658.94
2022-11-16T21:11:28.964Z,98648.25
2022-11-16T21:14:15.539Z,98638.69
2022-11-16T21:16:42.777Z,98646.75
2022-11-16T21:19:10.303Z,98646.81
2022-11-16T21:21:38.583Z,98648.78
2022-11-16T21:24:05.938Z,98651.50
2022-11-16T21:26:33.779Z,98650.69
2022-11-16T21:29:02.064Z,98642.44
2022-11-16T21:31:32.699Z,98647.00
2022-11-16T21:34:02.812Z,98629.81
2022-11-16T21:36:31.743Z,98635.38
2022-11-16T21:38:59.213Z,98624.47
2022-11-16T21:41:26.895Z,98623.19
2022-11-16T21:43:54.183Z,98624.63
2022-11-16T21:46:25.078Z,98625.06
2022-11-16T21:48:54.229Z,98616.38
2022-11-16T21:51:25.143Z,98613.50
2022-11-16T21:53:52.613Z,98615.41
2022-11-16T21:56:22.728Z,98607.06
2022-11-16T21:58:53.015Z,98618.69
2022-11-16T22:01:21.019Z,98602.78
2022-11-16T22:04:08.290Z,98602.41
2022-11-16T22:06:54.373Z,98600.69
2022-11-16T22:09:21.581Z,98601.34
2022-11-16T22:11:48.518Z,98599.38
2022-11-16T22:14:15.507Z,98601.34
2022-11-16T22:16:42.477Z,98599.25
2022-11-16T22:19:09.481Z,98596.16
2022-11-16T22:21:36.441Z,98596.78
2022-11-16T22:24:03.745Z,98591.19
2022-11-16T22:26:30.900Z,98585.56
2022-11-16T22:28:58.963Z,98589.03
2022-11-16T22:31:26.087Z,98585.72
2022-11-16T22:33:56.077Z,98580.00
2022-11-16T22:36:22.921Z,98580.47
2022-11-16T22:38:49.903Z,98582.00
2022-11-16T22:41:16.815Z,98571.16
2022-11-16T22:43:43.713Z,98566.81
2022-11-16T22:46:11.306Z,98565.72
2022-11-16T22:48:40.106Z,98563.47
2022-11-16T22:51:14.635Z,98558.94
2022-11-16T22:53:41.530Z,98550.81
2022-11-16T22:56:10.393Z,98552.53
2022-11-16T22:58:38.473Z,98553.97
2022-11-16T23:01:07.790Z,98547.28
2022-11-16T23:03:35.873Z,98537.81
2022-11-16T23:06:04.012Z,98544.13
2022-11-16T23:08:31.454Z,98541.59
2022-11-16T23:11:30.819Z,98532.16
2022-11-16T23:14:16.697Z,98530.63
2022-11-16T23:16:44.559Z,98523.31
2022-11-16T23:19:33.243Z,98520.16
2022-11-16T23:22:18.965Z,98514.44
2022-11-16T23:25:04.843Z,98516.59
2022-11-16T23:27:45.540Z,98507.75
2022-11-16T23:30:13.543Z,98504.34
2022-11-16T23:32:41.712Z,98489.81
2022-11-16T23:35:10.163Z,98498.81
2022-11-16T23:37:51.765Z,98492.59
2022-11-16T23:40:19.271Z,98478.97
2022-11-16T23:43:06.487Z,98478.59
2022-11-16T23:45:33.656Z,98466.72
2022-11-16T23:48:00.659Z,98467.47
2022-11-16T23:50:27.841Z,98468.16
2022-11-16T23:52:54.744Z,98461.00
2022-11-16T23:55:23.077Z,98463.13
2022-11-16T23:57:50.632Z,98458.06
